Flight Track Log - Related Links

Times and Time Zones

All times are in EDT time to prevent confusion due to time zone crossing. See the RPA3247 flight status page for this flight to view local times or setup timezone preferences in your user account.

Time Position Orientation Groundspeed Altitude Reporting Facility
EDT Latitude Longitude Course Direction KTS MPH feet Rate Location/Type
Sun 05:23:27 PM 42.7278 -73.8081 118° Southeast 141 162 1,300  Level Boston Center
Sun 05:24:40 PM 42.6897 -73.8553 222° Southwest 238 274 3,300 2,481 Climbing Boston Center
Sun 05:25:00 PM 42.5122 -74.0123 171° South  Level Estimated
Sun 05:25:40 PM 42.7136 -73.9406 291° West 266 306 6,800  Level Boston Center
Sun 05:26:00 PM 42.4332 -74.0820 180° South  Level Estimated
Sun 05:26:50 PM 42.7394 -74.0344 291° West 262 302 10,600  Level Boston Center
Sun 05:27:00 PM 42.3540 -74.1516 172° South  Level Estimated
Sun 05:27:50 PM 42.7275 -74.1417 261° West 254 292 13,800  Level Boston Center
Sun 05:28:00 PM 42.3094 -74.0392 118° Southeast  Level FlightAware Approximate
Sun 05:28:50 PM 42.6644 -74.1653 195° South 222 255 16,200  Level Boston Center
Sun 05:29:50 PM 42.5922 -74.1153 153° Southeast 246 283 18,400 1,400 Climbing Boston Center
Sun 05:30:50 PM 42.5158 -74.0681 156° South 316 364 19,000 900 Climbing Boston Center
Sun 05:31:50 PM 42.4186 -74.0122 157° South 348 400 20,200 1,500 Climbing Boston Center
Sun 05:32:50 PM 42.3175 -73.9450 154° Southeast 385 443 22,000 1,750 Climbing Boston Center
Sun 05:33:50 PM 42.2100 -73.8781 155° Southeast 409 471 23,700 2,000 Climbing Boston Center
Sun 05:34:50 PM 42.0997 -73.8614 174° South 417 480 26,000 1,045 Climbing Boston Center
Sun 05:36:02 PM 41.9803 -73.9147 198° South 403 464 26,000  Level Boston Center
Sun 05:38:30 PM 41.6322 -74.0572 197° South 483 556 26,000  Level New York Center
Sun 05:39:30 PM 41.5122 -74.1067 197° South 483 556 26,000  Level New York Center
Sun 05:40:31 PM 41.3858 -74.1583 197° South 483 556 26,000  Level New York Center
Sun 05:41:30 PM 41.2636 -74.2075 197° South 494 568 26,000  Level New York Center
Sun 05:42:31 PM 41.1392 -74.2589 197° South 499 574 26,000  Level New York Center
Sun 05:43:31 PM 41.0108 -74.3072 196° South 493 567 26,000  Level New York Center
Sun 05:44:31 PM 40.8842 -74.3611 198° South 487 560 26,000  Level New York Center
Sun 05:46:00 PM 40.7526 -74.4448 237° Southwest  Level FlightAware Approximate
Sun 05:46:30 PM 40.6858 -74.5750 237° Southwest 469 540 26,000  Level New York Center
Sun 05:47:30 PM 40.6022 -74.7097 231° Southwest 469 540 26,000  Level New York Center
Sun 05:48:30 PM 40.5144 -74.8411 229° Southwest 479 551 26,000 -645 Level New York Center
Sun 05:49:31 PM 40.4244 -74.9694 227° Southwest 485 558 24,700 -1,361 Descending New York Center
Sun 05:50:29 PM 40.3408 -75.0869 227° Southwest 473 544 23,300 -1,361 Descending New York Center
Sun 05:51:30 PM 40.2594 -75.2044 228° Southwest 458 527 22,000 -639 Descending New York Center
Sun 05:52:31 PM 40.1758 -75.3211 227° Southwest 445 512 22,000  Level New York Center
Sun 05:53:32 PM 40.0922 -75.4325 226° Southwest 445 512 22,000  Level New York Center
Sun 05:54:29 PM 40.0106 -75.5489 228° Southwest 445 512 22,000  Level New York Center
Sun 05:55:30 PM 39.9286 -75.6653 227° Southwest 445 512 22,000 -824 Level New York Center
Sun 05:57:00 PM 39.8352 -75.8153 234° Southwest  Level FlightAware Approximate
Sun 05:57:31 PM 39.7967 -75.9208 234° Southwest 440 506 19,500  Level New York Center
Sun 05:58:29 PM 39.7736 -76.0678 259° West 392 451 17,800 -1,967 Descending New York Center
Sun 06:00:00 PM 39.6488 -76.2012 235° Southwest  Level Estimated
Sun 06:00:31 PM 39.7375 -76.3106 235° Southwest 353 406 13,600  Level New York Center
Sun 06:02:30 PM 39.7000 -76.5500 259° West 334 384 12,000 -536 Descending Potomac TRACON
Sun 06:03:30 PM 39.6500 -76.6500 237° Southwest 329 379 12,000  Level Potomac TRACON
Sun 06:04:30 PM 39.6000 -76.7500 237° Southwest 330 380 12,000  Level Potomac TRACON
Sun 06:05:30 PM 39.5167 -76.7333 171° South 309 356 12,000  Level Potomac TRACON
Sun 06:06:36 PM 39.4167 -76.7167 173° South 309 356 12,000 -381 Level Potomac TRACON
Sun 06:07:36 PM 39.3333 -76.7000 171° South 292 336 11,200 -992 Descending Potomac TRACON
Sun 06:08:37 PM 39.2667 -76.6833 169° South 278 320 10,000 -595 Descending Potomac TRACON
Sun 06:09:37 PM 39.1833 -76.6667 171° South 275 316 10,000  Level Potomac TRACON
Sun 06:10:31 PM 39.1333 -76.7167 218° Southwest 285 328 10,000 -767 Level Potomac TRACON
Sun 06:12:00 PM 39.2988 -76.7284 357° North  Level FlightAware Approximate
Sun 06:12:37 PM 39.0000 -76.8667 357° North 280 322 7,700  Level Potomac TRACON
Sun 06:13:37 PM 38.9500 -76.9167 218° Southwest 271 312 6,000 -893 Descending Potomac TRACON
Sun 06:14:38 PM 38.8833 -76.9500 201° Southwest 266 306 5,900 -425 Descending Potomac TRACON
Sun 06:15:44 PM 38.8000 -76.9500 180° South 227 261 5,100 -952 Descending Potomac TRACON
Sun 06:16:44 PM 38.7500 -76.9500 180° South 216 249 3,900 -1,500 Descending Potomac TRACON
Sun 06:17:44 PM 38.7500 -77.0167 270° West 200 230 2,100 -1,400 Descending Potomac TRACON
Sun 06:18:44 PM 38.7833 -77.0333 339° North 176 203 1,100 -900 Descending Potomac TRACON
Sun 06:19:44 PM 38.8333 -77.0333 360° North 138 159 300 -800 Descending Potomac TRACON

Login

Don't have an account? Register now (free) for customized features, flight alerts, and more!